New Rochelle, NY (10801)

4:43 AM EDT on July 31, 2015 (GMT -0400)
Town Of Mamaroneck Fire Department | | Change Station
CLOSE
Current Station
Personal Weather Station
Location: Larchmont, NY
Elevation: 89 ft
Nearby Weather Stations

Elev 89 ft 40.94 °N, 73.76 °W | Updated 7 minutes ago

Clear
Clear
71.0 °F
Feels Like 71.0 °F
N
2.0
Wind Variable Wind from NNE
Gusts 3.0 mph

Today
High -- | Low -- °F
--% Chance of Precip.
Yesterday
High -- | Low -- °F
Precip. -- in
5:50 AM 8:12 PM
Full, 100% visible
Pressure 29.83 in
Visibility 7.0 miles
Clouds Few 6000 ft
Scattered Clouds 25000 ft
Dew Point 68 °F
Humidity 89%
Rainfall 0.00 in
Snow Depth Not available.
UV 0 out of 12
Pollen 7.00 out of 12
Air Quality Not available.
Flu Activity Not available.
METAR KLGA 310751Z 32007KT 7SM FEW060 SCT250 24/19 A2983 RMK AO2 SLP100 T02440189

More Conditions Fewer Conditions

Pressure 29.83 in
Visibility 7.0 miles
Clouds Few 6000 ft
Scattered Clouds 25000 ft
Dew Point 68 °F
Humidity 89%
Rainfall 0.00 in
Snow Depth Not available.
UV 0 out of 12
Pollen 7.00 out of 12
Air Quality Not available.
Flu Activity Not available.
METAR KLGA 310751Z 32007KT 7SM FEW060 SCT250 24/19 A2983 RMK AO2 SLP100 T02440189

More Conditions Fewer Conditions

10-Day Weather Forecast

×

Almanac

Astronomy

Jul. 31, 2015 Rise Set
Actual Time
Civil Twilight
Nautical Twilight
Astronomical Twilight
Moon
Length of Visible Light
Length of Day
Tomorrow will be .
, % of the Moon is Illuminated

Today's Extremes

State Highs State Lows

Community

WunderPhotos

Upload Photos

1,842,633 photos uploaded!

WunderBlogs® & News

Nearby

Air Quality

  Air Quality AQ Index Pollutant
Not available.

Snow Depth

Station Depth Elevation

Earthquake Activity

City Distance Mag. Time & Date
Minimum magnitude displayed is 2.5.

Coastal Water Temperatures

Place Temperature

Stations

Nearby Weather Stations

Station Location Temp. Windchill Dew Point Humidity Wind Precip. Elev Updated Type